Nearby METAR Reports

 

LEXJ - Santander/Paraya, Spain
Distancia a la estación: ESE 6km
Actualizado: 14/08/2018 15:30
Parcialmente nuboso
Parcialmente nuboso
 Viento del N
Viento: N 9 km/h
Temperatura: 24°C
Rocío: 17°C
Humedad: 65%
Barómetro: 1023 hPa
Nubes: Parcialmente nuboso
Visibilidad: 10 km
Detalle Nubes: Nubes dispersas 914 m
Parcialmente nuboso 1311 m
2018/08/14 13:30 LEXJ 141330Z 01005KT 330V070 9999 FEW030 SCT043 24/17 Q1023
LEBB - Bilbao/Sondica, Spain
Distancia a la estación: ESE 80km
Actualizado: 14/08/2018 15:30
Muy nuboso
Muy nuboso
 Viento del N
Viento: N 17 km/h
Temperatura: 24°C
Rocío: 17°C
Humedad: 65%
Barómetro: 1023 hPa
Nubes: Muy nuboso
Visibilidad: 10 km
Detalle Nubes: Parcialmente nuboso 914 m
Muy nuboso 1829 m
2018/08/14 13:30 LEBB 141330Z 01009KT 340V050 9999 SCT030 BKN060 24/17 Q1023 NOSIG
 
LEZG - Zaragoza (mil/Ci, Spain
Distancia a la estación: NNE 176km
Actualizado: 14/08/2018 15:30
Nubes dispersas
Nubes dispersas
 Viento del NO
Viento: NO 43 km/h
Temperatura: 27°C
Rocío: 12°C
Humedad: 39%
Barómetro: 1019 hPa
Nubes: Nubes dispersas
Visibilidad: 10 km
Detalle Nubes: Nubes dispersas 1524 m
2018/08/14 13:30 LEZG 141330Z 31023KT 9999 FEW050 27/12 Q1019
LEVT - Vitoria, Spain
Distancia a la estación: ESE 114km
Actualizado: 14/08/2018 15:30
Muy nuboso
Muy nuboso
 Viento del N
Viento: N 15 km/h
Temperatura: 21°C
Rocío: 14°C
Humedad: 64%
Barómetro: 1023 hPa
Nubes: Muy nuboso
Visibilidad: 10 km
Detalle Nubes: Parcialmente nuboso 762 m
Muy nuboso 1372 m
2018/08/14 13:30 LEVT 141330Z 35008KT 320V040 9999 SCT025 BKN045 21/14 Q1023
 
LEBG - Burgos/Villafria, Spain
Distancia a la estación: S 122km
Actualizado: 14/08/2018 15:30
Nubes dispersas
Nubes dispersas
 Viento del NE
Viento: NE 26 km/h
Temperatura: 21°C
Rocío: 11°C
Humedad: 53%
Barómetro: 1024 hPa
Nubes: Nubes dispersas
Visibilidad: 10 km
Detalle Nubes: Nubes dispersas 1006 m
2018/08/14 13:30 LEBG 141330Z 04014KT 9999 FEW033 21/11 Q1024
LELO - Logrono/Agoncill, Spain
Distancia a la estación: SE 169km
Actualizado: 14/08/2018 15:30
Muy nuboso
Muy nuboso
 Viento del varies
Viento: varies 13 km/h
Temperatura: 24°C
Rocío: 12°C
Humedad: 47%
Barómetro: 1022 hPa
Nubes: Muy nuboso
Visibilidad: 10 km
Detalle Nubes: Nubes dispersas 914 m
Muy nuboso 1676 m
2018/08/14 13:30 LELO 141330Z VRB07KT 9999 FEW030 BKN055 24/12 Q1022
 
LESO - San Sebastian/Fu, Spain
Distancia a la estación: E 169km
Actualizado: 14/08/2018 15:30
Muy nuboso
Muy nuboso
 Viento del NO
Viento: NO 11 km/h
Temperatura: 23°C
Rocío: 17°C
Humedad: 69%
Barómetro: 1022 hPa
Nubes: Muy nuboso
Visibilidad: 10 km
Detalle Nubes: Parcialmente nuboso 914 m
Muy nuboso 1524 m
2018/08/14 13:30 LESO 141330Z 32006KT 250V040 9999 SCT030 BKN050 23/17 Q1022
LEAS - Asturias/Aviles, Spain
Distancia a la estación: O 172km
Actualizado: 14/08/2018 15:30
Muy nuboso
Muy nuboso
 Viento del NE
Viento: NE 11 km/h
Temperatura: 22°C
Rocío: 17°C
Humedad: 73%
Barómetro: 1023 hPa
Nubes: Muy nuboso
Visibilidad: 10 km
Detalle Nubes: Muy nuboso 853 m
2018/08/14 13:30 LEAS 141330Z 04006KT 330V110 9999 BKN028 22/17 Q1023 NOSIG
 
LELN - Leon/Virgen Cami, Spain
Distancia a la estación: SO 174km
Actualizado: 14/08/2018 15:30
Despejado
Despejado
 Viento del E
Viento: E 7 km/h
Temperatura: 25°C
Rocío: 7°C
Humedad: 32%
Barómetro: 1022 hPa
Resumen: Despejado
Visibilidad: greater than 10 km
2018/08/14 13:30 LELN 141330Z 10004KT CAVOK 25/07 Q1022
LFBZ - Biarritz/Anglet, France
Distancia a la estación: E 191km
Actualizado: 14/08/2018 15:30
Parcialmente nuboso
Parcialmente nuboso
 Viento del NNO
Viento: NNO 17 km/h
Temperatura: 24°C
Rocío: 18°C
Humedad: 69%
Barómetro: 1022 hPa
Nubes: Parcialmente nuboso
Visibilidad: 10 km
Detalle Nubes: Nubes dispersas 823 m
Parcialmente nuboso 975 m
2018/08/14 13:30 LFBZ 141330Z AUTO 33009KT 280V360 9999 FEW027 SCT032 24/18 Q1022 NOSIG
 
LEPP - Pamplona/Noain, Spain
Distancia a la estación: ESE 199km
Actualizado: 14/08/2018 15:30
Muy nuboso
Muy nuboso
 Viento del N
Viento: N 26 km/h
Temperatura: 22°C
Rocío: 14°C
Humedad: 61%
Barómetro: 1022 hPa
Nubes: Muy nuboso
Visibilidad: 10 km
Detalle Nubes: Nubes dispersas 732 m
Muy nuboso 1402 m
2018/08/14 13:30 LEPP 141330Z 36014KT 330V030 9999 FEW024 BKN046 22/14 Q1022
LEBL - Barcelona Airpor, Spain
Distancia a la estación: ESE 554km
Actualizado: 14/08/2018 15:30
Nubes dispersas
Nubes dispersas
 Viento del SSO
Viento: SSO 26 km/h
Temperatura: 27°C
Heat Index: 29°C
Rocío: 21°C
Humedad: 70%
Barómetro: 1016 hPa
Nubes: Nubes dispersas
Visibilidad: 10 km
Detalle Nubes: Nubes dispersas 762 m
2018/08/14 13:30 LEBL 141330Z 20014KT 9999 FEW025 27/21 Q1016 NOSIG
 
LEMD - Madrid/Barajas, Spain
Distancia a la estación: S 325km
Actualizado: 14/08/2018 15:30
Despejado
Despejado
 Viento del N
Viento: N 11 km/h
Temperatura: 32°C
Rocío: 10°C
Humedad: 26%
Barómetro: 1018 hPa
Resumen: Despejado
Visibilidad: greater than 10 km
2018/08/14 13:30 LEMD 141330Z 35006KT 290V080 CAVOK 32/10 Q1018 NOSIG
LPPT - Lisbon/Portela, Portugal
Distancia a la estación: SO 663km
Actualizado: 14/08/2018 15:30
Despejado
Despejado
 Viento del varies
Viento: varies 9 km/h
Temperatura: 29°C
Heat Index: 29°C
Rocío: 16°C
Humedad: 45%
Barómetro: 1017 hPa
Resumen: Despejado
Visibilidad: greater than 10 km
2018/08/14 13:30 LPPT 141330Z VRB05KT CAVOK 29/16 Q1017
 
LECO - La Coruna/Alvedr, Spain
Distancia a la estación: O 349km
Actualizado: 14/08/2018 15:30
Despejado
Despejado
 Viento del N
Viento: N 15 km/h
Temperatura: 24°C
Rocío: 17°C
Humedad: 65%
Barómetro: 1020 hPa
Resumen: Despejado
Visibilidad: greater than 10 km
2018/08/14 13:30 LECO 141330Z 01008KT 330V060 CAVOK 24/17 Q1020 NOSIG
LEST - Santiago/Labacol, Spain
Distancia a la estación: O 358km
Actualizado: 14/08/2018 15:30
Despejado
Despejado
 Viento del NE
Viento: NE 20 km/h
Temperatura: 27°C
Heat Index: 27°C
Rocío: 15°C
Humedad: 48%
Barómetro: 1021 hPa
Resumen: Despejado
Visibilidad: greater than 10 km
2018/08/14 13:30 LEST 141330Z 05011KT 010V090 CAVOK 27/15 Q1021 NOSIG